sensor_id;sensor_type;location;lat;lon;timestamp;P1;durP1;ratioP1;P2;durP2;ratioP2
75016;SDS011;63577;39.766;2.720;2023-09-08T00:01:47;6.80;;;3.50;;
75016;SDS011;63577;39.766;2.720;2023-09-08T00:04:13;5.70;;;3.10;;
75016;SDS011;63577;39.766;2.720;2023-09-08T00:06:40;5.20;;;3.10;;
75016;SDS011;63577;39.766;2.720;2023-09-08T00:09:05;6.50;;;3.30;;
75016;SDS011;63577;39.766;2.720;2023-09-08T00:11:30;5.70;;;2.80;;
75016;SDS011;63577;39.766;2.720;2023-09-08T00:13:56;8.30;;;3.20;;
75016;SDS011;63577;39.766;2.720;2023-09-08T00:16:21;7.20;;;3.80;;
75016;SDS011;63577;39.766;2.720;2023-09-08T00:18:46;6.40;;;3.70;;
75016;SDS011;63577;39.766;2.720;2023-09-08T00:21:12;6.60;;;3.80;;
75016;SDS011;63577;39.766;2.720;2023-09-08T00:23:37;6.00;;;3.10;;
75016;SDS011;63577;39.766;2.720;2023-09-08T00:26:03;7.30;;;3.70;;
75016;SDS011;63577;39.766;2.720;2023-09-08T00:28:28;6.00;;;3.80;;
75016;SDS011;63577;39.766;2.720;2023-09-08T00:30:53;6.90;;;3.80;;
75016;SDS011;63577;39.766;2.720;2023-09-08T00:33:19;6.70;;;3.00;;
75016;SDS011;63577;39.766;2.720;2023-09-08T00:35:44;5.90;;;3.70;;
75016;SDS011;63577;39.766;2.720;2023-09-08T00:38:10;6.20;;;3.20;;
75016;SDS011;63577;39.766;2.720;2023-09-08T00:40:35;6.70;;;3.70;;
75016;SDS011;63577;39.766;2.720;2023-09-08T00:43:00;7.00;;;3.70;;
75016;SDS011;63577;39.766;2.720;2023-09-08T00:45:26;5.10;;;3.10;;
75016;SDS011;63577;39.766;2.720;2023-09-08T00:47:52;7.10;;;3.20;;
75016;SDS011;63577;39.766;2.720;2023-09-08T00:50:17;7.20;;;3.80;;
75016;SDS011;63577;39.766;2.720;2023-09-08T00:52:43;5.70;;;3.50;;
75016;SDS011;63577;39.766;2.720;2023-09-08T00:55:08;6.90;;;3.30;;
75016;SDS011;63577;39.766;2.720;2023-09-08T00:57:33;5.40;;;3.50;;
75016;SDS011;63577;39.766;2.720;2023-09-08T00:59:59;5.80;;;3.20;;
75016;SDS011;63577;39.766;2.720;2023-09-08T01:02:25;5.90;;;3.30;;
75016;SDS011;63577;39.766;2.720;2023-09-08T01:04:50;6.30;;;3.60;;
75016;SDS011;63577;39.766;2.720;2023-09-08T01:07:16;6.00;;;3.20;;
75016;SDS011;63577;39.766;2.720;2023-09-08T01:09:45;6.90;;;3.10;;
75016;SDS011;63577;39.766;2.720;2023-09-08T01:12:10;6.50;;;3.10;;
75016;SDS011;63577;39.766;2.720;2023-09-08T01:14:36;5.90;;;3.40;;
75016;SDS011;63577;39.766;2.720;2023-09-08T01:17:01;5.80;;;3.10;;
75016;SDS011;63577;39.766;2.720;2023-09-08T01:19:28;7.90;;;3.30;;
75016;SDS011;63577;39.766;2.720;2023-09-08T01:27:22;6.70;;;3.60;;
75016;SDS011;63577;39.766;2.720;2023-09-08T01:29:49;5.70;;;3.30;;
75016;SDS011;63577;39.766;2.720;2023-09-08T01:32:15;6.20;;;3.40;;
75016;SDS011;63577;39.766;2.720;2023-09-08T01:34:41;7.00;;;3.10;;
75016;SDS011;63577;39.766;2.720;2023-09-08T01:37:06;6.10;;;3.30;;
75016;SDS011;63577;39.766;2.720;2023-09-08T01:39:32;6.50;;;3.10;;
75016;SDS011;63577;39.766;2.720;2023-09-08T01:41:57;5.20;;;3.20;;
75016;SDS011;63577;39.766;2.720;2023-09-08T01:44:23;7.50;;;3.50;;
75016;SDS011;63577;39.766;2.720;2023-09-08T01:46:48;5.30;;;2.90;;
75016;SDS011;63577;39.766;2.720;2023-09-08T01:49:16;6.60;;;3.80;;
75016;SDS011;63577;39.766;2.720;2023-09-08T01:51:41;6.30;;;3.30;;
75016;SDS011;63577;39.766;2.720;2023-09-08T01:54:06;6.60;;;3.60;;
75016;SDS011;63577;39.766;2.720;2023-09-08T01:56:32;6.00;;;3.40;;
75016;SDS011;63577;39.766;2.720;2023-09-08T01:58:57;6.50;;;3.50;;
75016;SDS011;63577;39.766;2.720;2023-09-08T02:01:24;9.60;;;3.60;;
75016;SDS011;63577;39.766;2.720;2023-09-08T02:03:49;6.90;;;4.00;;
75016;SDS011;63577;39.766;2.720;2023-09-08T02:06:15;8.10;;;3.60;;
75016;SDS011;63577;39.766;2.720;2023-09-08T02:08:40;8.30;;;3.60;;
75016;SDS011;63577;39.766;2.720;2023-09-08T02:11:05;7.30;;;3.50;;
75016;SDS011;63577;39.766;2.720;2023-09-08T02:13:31;7.30;;;3.50;;
75016;SDS011;63577;39.766;2.720;2023-09-08T02:15:56;9.30;;;4.20;;
75016;SDS011;63577;39.766;2.720;2023-09-08T02:18:21;6.50;;;3.70;;
75016;SDS011;63577;39.766;2.720;2023-09-08T02:20:46;5.70;;;3.80;;
75016;SDS011;63577;39.766;2.720;2023-09-08T02:23:12;8.00;;;3.70;;
75016;SDS011;63577;39.766;2.720;2023-09-08T02:25:37;6.20;;;3.60;;
75016;SDS011;63577;39.766;2.720;2023-09-08T02:28:03;6.80;;;3.70;;
75016;SDS011;63577;39.766;2.720;2023-09-08T02:30:28;5.90;;;3.60;;
75016;SDS011;63577;39.766;2.720;2023-09-08T02:32:54;4.80;;;3.10;;
75016;SDS011;63577;39.766;2.720;2023-09-08T02:35:20;5.90;;;3.40;;
75016;SDS011;63577;39.766;2.720;2023-09-08T02:37:46;6.40;;;3.90;;
75016;SDS011;63577;39.766;2.720;2023-09-08T02:40:11;5.00;;;3.30;;
75016;SDS011;63577;39.766;2.720;2023-09-08T02:42:36;7.00;;;3.60;;
75016;SDS011;63577;39.766;2.720;2023-09-08T02:45:02;6.40;;;3.00;;
75016;SDS011;63577;39.766;2.720;2023-09-08T02:47:27;7.00;;;3.80;;
75016;SDS011;63577;39.766;2.720;2023-09-08T02:49:52;7.80;;;3.40;;
75016;SDS011;63577;39.766;2.720;2023-09-08T02:52:18;6.30;;;3.80;;
75016;SDS011;63577;39.766;2.720;2023-09-08T02:54:44;9.20;;;3.80;;
75016;SDS011;63577;39.766;2.720;2023-09-08T02:57:10;7.90;;;3.30;;
75016;SDS011;63577;39.766;2.720;2023-09-08T02:59:35;7.40;;;3.40;;
75016;SDS011;63577;39.766;2.720;2023-09-08T03:02:00;6.20;;;3.50;;
75016;SDS011;63577;39.766;2.720;2023-09-08T03:04:26;5.20;;;3.20;;
75016;SDS011;63577;39.766;2.720;2023-09-08T03:06:51;6.30;;;3.30;;
75016;SDS011;63577;39.766;2.720;2023-09-08T03:09:17;7.00;;;3.10;;
75016;SDS011;63577;39.766;2.720;2023-09-08T03:11:42;7.10;;;3.30;;
75016;SDS011;63577;39.766;2.720;2023-09-08T03:14:07;7.70;;;3.50;;
75016;SDS011;63577;39.766;2.720;2023-09-08T03:16:33;5.40;;;3.40;;
75016;SDS011;63577;39.766;2.720;2023-09-08T03:18:58;9.90;;;3.30;;
75016;SDS011;63577;39.766;2.720;2023-09-08T03:21:24;5.40;;;3.00;;
75016;SDS011;63577;39.766;2.720;2023-09-08T03:23:49;10.70;;;3.60;;
75016;SDS011;63577;39.766;2.720;2023-09-08T03:26:14;6.00;;;3.00;;
75016;SDS011;63577;39.766;2.720;2023-09-08T03:28:41;4.80;;;2.70;;
75016;SDS011;63577;39.766;2.720;2023-09-08T03:31:07;6.30;;;3.00;;
75016;SDS011;63577;39.766;2.720;2023-09-08T03:33:32;7.00;;;3.10;;
75016;SDS011;63577;39.766;2.720;2023-09-08T03:35:57;5.70;;;2.90;;
75016;SDS011;63577;39.766;2.720;2023-09-08T03:38:23;6.50;;;3.50;;
75016;SDS011;63577;39.766;2.720;2023-09-08T03:40:48;7.60;;;3.60;;
75016;SDS011;63577;39.766;2.720;2023-09-08T03:43:14;6.20;;;3.80;;
75016;SDS011;63577;39.766;2.720;2023-09-08T03:45:39;5.30;;;3.70;;
75016;SDS011;63577;39.766;2.720;2023-09-08T03:48:05;6.00;;;3.40;;
75016;SDS011;63577;39.766;2.720;2023-09-08T03:50:30;7.10;;;3.80;;
75016;SDS011;63577;39.766;2.720;2023-09-08T03:52:56;7.10;;;3.60;;
75016;SDS011;63577;39.766;2.720;2023-09-08T03:55:21;6.60;;;3.80;;
75016;SDS011;63577;39.766;2.720;2023-09-08T03:57:46;6.10;;;3.40;;
75016;SDS011;63577;39.766;2.720;2023-09-08T04:00:13;6.20;;;3.40;;
75016;SDS011;63577;39.766;2.720;2023-09-08T04:02:44;7.30;;;3.40;;
75016;SDS011;63577;39.766;2.720;2023-09-08T04:05:09;6.30;;;3.30;;
75016;SDS011;63577;39.766;2.720;2023-09-08T04:07:35;5.20;;;2.80;;
75016;SDS011;63577;39.766;2.720;2023-09-08T04:10:01;6.60;;;3.00;;
75016;SDS011;63577;39.766;2.720;2023-09-08T04:12:26;5.40;;;3.10;;
75016;SDS011;63577;39.766;2.720;2023-09-08T04:14:52;6.00;;;2.90;;
75016;SDS011;63577;39.766;2.720;2023-09-08T04:17:17;6.30;;;2.90;;
75016;SDS011;63577;39.766;2.720;2023-09-08T04:19:43;6.30;;;3.40;;
75016;SDS011;63577;39.766;2.720;2023-09-08T04:22:08;5.30;;;3.10;;
75016;SDS011;63577;39.766;2.720;2023-09-08T04:24:35;6.50;;;3.20;;
75016;SDS011;63577;39.766;2.720;2023-09-08T04:27:01;6.20;;;3.10;;
75016;SDS011;63577;39.766;2.720;2023-09-08T04:29:26;6.30;;;3.30;;
75016;SDS011;63577;39.766;2.720;2023-09-08T04:31:51;6.10;;;3.50;;
75016;SDS011;63577;39.766;2.720;2023-09-08T04:34:16;6.00;;;3.60;;
75016;SDS011;63577;39.766;2.720;2023-09-08T04:36:43;6.40;;;3.70;;
75016;SDS011;63577;39.766;2.720;2023-09-08T04:39:08;6.00;;;3.20;;
75016;SDS011;63577;39.766;2.720;2023-09-08T04:41:36;5.30;;;3.30;;
75016;SDS011;63577;39.766;2.720;2023-09-08T04:44:01;6.80;;;3.50;;
75016;SDS011;63577;39.766;2.720;2023-09-08T04:46:27;5.40;;;3.60;;
75016;SDS011;63577;39.766;2.720;2023-09-08T04:48:52;5.70;;;3.30;;
75016;SDS011;63577;39.766;2.720;2023-09-08T04:51:17;6.40;;;3.10;;
75016;SDS011;63577;39.766;2.720;2023-09-08T04:53:43;5.00;;;3.30;;
75016;SDS011;63577;39.766;2.720;2023-09-08T04:56:08;6.20;;;3.30;;
75016;SDS011;63577;39.766;2.720;2023-09-08T04:58:33;4.60;;;3.10;;
75016;SDS011;63577;39.766;2.720;2023-09-08T05:00:59;5.50;;;3.40;;
75016;SDS011;63577;39.766;2.720;2023-09-08T05:03:24;5.20;;;2.80;;
75016;SDS011;63577;39.766;2.720;2023-09-08T05:05:51;6.00;;;3.30;;
75016;SDS011;63577;39.766;2.720;2023-09-08T05:08:16;7.00;;;3.30;;
75016;SDS011;63577;39.766;2.720;2023-09-08T05:10:43;5.10;;;2.80;;
75016;SDS011;63577;39.766;2.720;2023-09-08T05:13:09;6.10;;;3.60;;
75016;SDS011;63577;39.766;2.720;2023-09-08T05:15:34;6.10;;;3.50;;
75016;SDS011;63577;39.766;2.720;2023-09-08T05:17:59;7.10;;;3.00;;
75016;SDS011;63577;39.766;2.720;2023-09-08T05:20:25;6.50;;;3.20;;
75016;SDS011;63577;39.766;2.720;2023-09-08T05:22:51;6.40;;;3.50;;
75016;SDS011;63577;39.766;2.720;2023-09-08T05:25:16;7.60;;;3.40;;
75016;SDS011;63577;39.766;2.720;2023-09-08T05:27:42;8.60;;;4.10;;
75016;SDS011;63577;39.766;2.720;2023-09-08T05:30:07;8.40;;;3.80;;
75016;SDS011;63577;39.766;2.720;2023-09-08T05:32:33;5.80;;;3.70;;
75016;SDS011;63577;39.766;2.720;2023-09-08T05:34:59;8.00;;;3.30;;
75016;SDS011;63577;39.766;2.720;2023-09-08T05:37:24;8.10;;;3.90;;
75016;SDS011;63577;39.766;2.720;2023-09-08T05:39:49;7.50;;;3.90;;
75016;SDS011;63577;39.766;2.720;2023-09-08T05:42:15;6.30;;;3.30;;
75016;SDS011;63577;39.766;2.720;2023-09-08T05:44:41;5.70;;;3.10;;
75016;SDS011;63577;39.766;2.720;2023-09-08T05:47:06;5.40;;;3.10;;
75016;SDS011;63577;39.766;2.720;2023-09-08T05:49:31;7.50;;;3.70;;
75016;SDS011;63577;39.766;2.720;2023-09-08T05:51:57;6.70;;;3.50;;
75016;SDS011;63577;39.766;2.720;2023-09-08T05:54:22;6.50;;;3.20;;
75016;SDS011;63577;39.766;2.720;2023-09-08T05:56:47;6.50;;;2.90;;
75016;SDS011;63577;39.766;2.720;2023-09-08T05:59:13;6.40;;;3.40;;
75016;SDS011;63577;39.766;2.720;2023-09-08T06:01:38;6.70;;;3.10;;
75016;SDS011;63577;39.766;2.720;2023-09-08T06:04:04;6.50;;;3.50;;
75016;SDS011;63577;39.766;2.720;2023-09-08T06:06:29;6.20;;;3.50;;
75016;SDS011;63577;39.766;2.720;2023-09-08T06:08:54;5.60;;;3.60;;
75016;SDS011;63577;39.766;2.720;2023-09-08T06:11:20;6.10;;;3.70;;
75016;SDS011;63577;39.766;2.720;2023-09-08T06:13:45;6.50;;;3.30;;
75016;SDS011;63577;39.766;2.720;2023-09-08T06:16:11;6.30;;;3.10;;
75016;SDS011;63577;39.766;2.720;2023-09-08T06:18:36;6.50;;;3.40;;
75016;SDS011;63577;39.766;2.720;2023-09-08T06:21:07;6.40;;;3.80;;
75016;SDS011;63577;39.766;2.720;2023-09-08T06:23:33;6.10;;;3.20;;
75016;SDS011;63577;39.766;2.720;2023-09-08T06:25:59;7.80;;;3.30;;
75016;SDS011;63577;39.766;2.720;2023-09-08T06:28:25;6.70;;;3.30;;
75016;SDS011;63577;39.766;2.720;2023-09-08T06:30:51;8.00;;;3.40;;
75016;SDS011;63577;39.766;2.720;2023-09-08T06:33:16;5.70;;;3.20;;
75016;SDS011;63577;39.766;2.720;2023-09-08T06:35:41;7.00;;;3.30;;
75016;SDS011;63577;39.766;2.720;2023-09-08T06:38:07;5.20;;;3.00;;
75016;SDS011;63577;39.766;2.720;2023-09-08T06:40:32;6.40;;;3.40;;
75016;SDS011;63577;39.766;2.720;2023-09-08T06:42:57;6.00;;;3.40;;
75016;SDS011;63577;39.766;2.720;2023-09-08T06:45:23;9.20;;;3.90;;
75016;SDS011;63577;39.766;2.720;2023-09-08T06:47:48;6.90;;;3.70;;
75016;SDS011;63577;39.766;2.720;2023-09-08T06:50:15;6.30;;;3.60;;
75016;SDS011;63577;39.766;2.720;2023-09-08T06:52:40;6.70;;;3.40;;
75016;SDS011;63577;39.766;2.720;2023-09-08T06:55:07;8.20;;;3.50;;
75016;SDS011;63577;39.766;2.720;2023-09-08T06:57:32;14.80;;;3.80;;
75016;SDS011;63577;39.766;2.720;2023-09-08T06:59:57;22.80;;;4.10;;
75016;SDS011;63577;39.766;2.720;2023-09-08T07:02:23;7.40;;;3.10;;
75016;SDS011;63577;39.766;2.720;2023-09-08T07:04:48;6.40;;;3.30;;
75016;SDS011;63577;39.766;2.720;2023-09-08T07:07:14;7.70;;;3.90;;
75016;SDS011;63577;39.766;2.720;2023-09-08T07:09:39;5.50;;;3.20;;
75016;SDS011;63577;39.766;2.720;2023-09-08T07:12:04;6.70;;;3.90;;
75016;SDS011;63577;39.766;2.720;2023-09-08T07:14:31;6.90;;;3.40;;
75016;SDS011;63577;39.766;2.720;2023-09-08T07:16:57;6.00;;;3.20;;
75016;SDS011;63577;39.766;2.720;2023-09-08T07:19:22;7.20;;;3.80;;
75016;SDS011;63577;39.766;2.720;2023-09-08T07:21:47;5.90;;;3.70;;
75016;SDS011;63577;39.766;2.720;2023-09-08T07:24:13;5.60;;;3.80;;
75016;SDS011;63577;39.766;2.720;2023-09-08T07:26:38;6.40;;;3.40;;
75016;SDS011;63577;39.766;2.720;2023-09-08T07:29:03;6.80;;;3.70;;
75016;SDS011;63577;39.766;2.720;2023-09-08T07:31:29;6.20;;;3.70;;
75016;SDS011;63577;39.766;2.720;2023-09-08T07:33:54;6.00;;;3.10;;
75016;SDS011;63577;39.766;2.720;2023-09-08T07:36:19;6.00;;;3.10;;
75016;SDS011;63577;39.766;2.720;2023-09-08T07:38:45;5.80;;;3.40;;
75016;SDS011;63577;39.766;2.720;2023-09-08T07:41:10;5.50;;;3.20;;
75016;SDS011;63577;39.766;2.720;2023-09-08T07:43:36;6.00;;;3.30;;
75016;SDS011;63577;39.766;2.720;2023-09-08T07:46:05;7.90;;;3.40;;
75016;SDS011;63577;39.766;2.720;2023-09-08T07:48:30;8.30;;;3.50;;
75016;SDS011;63577;39.766;2.720;2023-09-08T07:50:56;5.60;;;3.10;;
75016;SDS011;63577;39.766;2.720;2023-09-08T07:53:23;6.00;;;3.10;;
75016;SDS011;63577;39.766;2.720;2023-09-08T07:55:48;6.80;;;3.10;;
75016;SDS011;63577;39.766;2.720;2023-09-08T07:58:14;5.20;;;3.00;;
75016;SDS011;63577;39.766;2.720;2023-09-08T08:00:39;5.90;;;2.90;;
75016;SDS011;63577;39.766;2.720;2023-09-08T08:03:04;6.20;;;3.00;;
75016;SDS011;63577;39.766;2.720;2023-09-08T08:05:31;6.80;;;3.60;;
75016;SDS011;63577;39.766;2.720;2023-09-08T08:07:56;6.40;;;2.90;;
75016;SDS011;63577;39.766;2.720;2023-09-08T08:10:22;5.60;;;2.80;;
75016;SDS011;63577;39.766;2.720;2023-09-08T08:12:47;6.70;;;3.30;;
75016;SDS011;63577;39.766;2.720;2023-09-08T08:15:13;11.40;;;4.10;;
75016;SDS011;63577;39.766;2.720;2023-09-08T08:17:39;6.80;;;3.30;;
75016;SDS011;63577;39.766;2.720;2023-09-08T08:20:05;7.00;;;3.10;;
75016;SDS011;63577;39.766;2.720;2023-09-08T08:22:38;6.40;;;2.70;;
75016;SDS011;63577;39.766;2.720;2023-09-08T08:25:04;7.90;;;3.20;;
75016;SDS011;63577;39.766;2.720;2023-09-08T08:27:29;7.60;;;3.40;;
75016;SDS011;63577;39.766;2.720;2023-09-08T08:29:58;5.10;;;3.00;;
75016;SDS011;63577;39.766;2.720;2023-09-08T08:32:26;5.40;;;2.70;;
75016;SDS011;63577;39.766;2.720;2023-09-08T08:34:51;9.60;;;3.20;;
75016;SDS011;63577;39.766;2.720;2023-09-08T08:37:17;6.40;;;2.90;;
75016;SDS011;63577;39.766;2.720;2023-09-08T08:39:42;7.50;;;3.20;;
75016;SDS011;63577;39.766;2.720;2023-09-08T08:42:08;6.10;;;2.90;;
75016;SDS011;63577;39.766;2.720;2023-09-08T08:44:34;5.50;;;3.00;;
75016;SDS011;63577;39.766;2.720;2023-09-08T08:47:00;8.70;;;3.00;;
75016;SDS011;63577;39.766;2.720;2023-09-08T08:49:27;4.90;;;2.70;;
75016;SDS011;63577;39.766;2.720;2023-09-08T08:51:52;7.40;;;3.10;;
75016;SDS011;63577;39.766;2.720;2023-09-08T08:54:18;6.30;;;2.80;;
75016;SDS011;63577;39.766;2.720;2023-09-08T08:56:44;6.40;;;3.30;;
75016;SDS011;63577;39.766;2.720;2023-09-08T08:59:10;6.40;;;3.20;;
75016;SDS011;63577;39.766;2.720;2023-09-08T09:01:36;5.60;;;2.70;;
75016;SDS011;63577;39.766;2.720;2023-09-08T09:04:03;6.30;;;3.10;;
75016;SDS011;63577;39.766;2.720;2023-09-08T09:06:30;5.60;;;3.30;;
75016;SDS011;63577;39.766;2.720;2023-09-08T09:08:56;7.30;;;3.00;;
75016;SDS011;63577;39.766;2.720;2023-09-08T09:11:22;7.30;;;3.00;;
75016;SDS011;63577;39.766;2.720;2023-09-08T09:13:47;7.50;;;3.50;;
75016;SDS011;63577;39.766;2.720;2023-09-08T09:16:12;7.60;;;3.40;;
75016;SDS011;63577;39.766;2.720;2023-09-08T09:18:59;6.60;;;3.10;;
75016;SDS011;63577;39.766;2.720;2023-09-08T09:24:28;6.40;;;3.40;;
75016;SDS011;63577;39.766;2.720;2023-09-08T09:26:53;7.40;;;3.60;;
75016;SDS011;63577;39.766;2.720;2023-09-08T09:29:19;6.80;;;3.20;;
75016;SDS011;63577;39.766;2.720;2023-09-08T09:31:54;8.20;;;3.80;;
75016;SDS011;63577;39.766;2.720;2023-09-08T09:34:21;6.80;;;3.20;;
75016;SDS011;63577;39.766;2.720;2023-09-08T09:36:49;6.60;;;3.00;;
75016;SDS011;63577;39.766;2.720;2023-09-08T09:39:22;6.30;;;3.30;;
75016;SDS011;63577;39.766;2.720;2023-09-08T09:41:49;5.80;;;3.20;;
75016;SDS011;63577;39.766;2.720;2023-09-08T09:44:15;6.70;;;3.20;;
75016;SDS011;63577;39.766;2.720;2023-09-08T09:46:47;7.30;;;3.20;;
75016;SDS011;63577;39.766;2.720;2023-09-08T09:49:13;7.30;;;2.90;;
75016;SDS011;63577;39.766;2.720;2023-09-08T09:51:45;5.80;;;3.10;;
75016;SDS011;63577;39.766;2.720;2023-09-08T09:54:12;6.40;;;2.50;;
75016;SDS011;63577;39.766;2.720;2023-09-08T09:56:38;6.60;;;3.20;;
75016;SDS011;63577;39.766;2.720;2023-09-08T09:59:03;7.40;;;3.10;;
75016;SDS011;63577;39.766;2.720;2023-09-08T10:01:29;5.50;;;3.10;;
75016;SDS011;63577;39.766;2.720;2023-09-08T10:03:54;6.60;;;3.20;;
75016;SDS011;63577;39.766;2.720;2023-09-08T10:06:20;6.80;;;2.80;;
75016;SDS011;63577;39.766;2.720;2023-09-08T10:08:47;7.10;;;3.10;;
75016;SDS011;63577;39.766;2.720;2023-09-08T10:11:13;4.90;;;2.80;;
75016;SDS011;63577;39.766;2.720;2023-09-08T10:13:41;6.40;;;2.90;;
75016;SDS011;63577;39.766;2.720;2023-09-08T10:16:08;6.70;;;3.00;;
75016;SDS011;63577;39.766;2.720;2023-09-08T10:18:33;6.50;;;2.90;;
75016;SDS011;63577;39.766;2.720;2023-09-08T10:21:00;6.00;;;3.10;;
75016;SDS011;63577;39.766;2.720;2023-09-08T10:23:38;6.20;;;2.90;;
75016;SDS011;63577;39.766;2.720;2023-09-08T10:26:07;4.90;;;2.40;;
75016;SDS011;63577;39.766;2.720;2023-09-08T10:28:34;5.30;;;2.70;;
75016;SDS011;63577;39.766;2.720;2023-09-08T10:31:01;6.60;;;3.00;;
75016;SDS011;63577;39.766;2.720;2023-09-08T10:33:27;7.00;;;2.40;;
75016;SDS011;63577;39.766;2.720;2023-09-08T10:35:52;7.00;;;2.90;;
75016;SDS011;63577;39.766;2.720;2023-09-08T10:38:25;4.90;;;2.80;;
75016;SDS011;63577;39.766;2.720;2023-09-08T10:40:51;6.00;;;2.70;;
75016;SDS011;63577;39.766;2.720;2023-09-08T10:43:17;5.20;;;2.90;;
75016;SDS011;63577;39.766;2.720;2023-09-08T10:45:43;7.30;;;3.20;;
75016;SDS011;63577;39.766;2.720;2023-09-08T10:48:08;5.70;;;2.80;;
75016;SDS011;63577;39.766;2.720;2023-09-08T10:50:35;4.90;;;2.60;;
75016;SDS011;63577;39.766;2.720;2023-09-08T10:53:09;5.20;;;3.00;;
75016;SDS011;63577;39.766;2.720;2023-09-08T10:55:42;5.60;;;2.50;;
75016;SDS011;63577;39.766;2.720;2023-09-08T10:58:11;6.00;;;3.20;;
75016;SDS011;63577;39.766;2.720;2023-09-08T11:00:46;6.10;;;2.90;;
75016;SDS011;63577;39.766;2.720;2023-09-08T11:03:13;6.70;;;3.10;;
75016;SDS011;63577;39.766;2.720;2023-09-08T11:05:41;5.00;;;2.70;;
75016;SDS011;63577;39.766;2.720;2023-09-08T11:08:06;4.80;;;2.40;;
75016;SDS011;63577;39.766;2.720;2023-09-08T11:10:31;5.10;;;3.10;;
75016;SDS011;63577;39.766;2.720;2023-09-08T11:12:57;5.20;;;3.00;;
75016;SDS011;63577;39.766;2.720;2023-09-08T11:15:25;5.60;;;2.80;;
75016;SDS011;63577;39.766;2.720;2023-09-08T11:17:50;4.70;;;2.50;;
75016;SDS011;63577;39.766;2.720;2023-09-08T11:20:25;5.20;;;2.70;;
75016;SDS011;63577;39.766;2.720;2023-09-08T11:22:50;5.00;;;2.50;;
75016;SDS011;63577;39.766;2.720;2023-09-08T11:25:16;6.60;;;2.80;;
75016;SDS011;63577;39.766;2.720;2023-09-08T11:27:41;5.30;;;2.60;;
75016;SDS011;63577;39.766;2.720;2023-09-08T11:30:10;5.20;;;2.60;;
75016;SDS011;63577;39.766;2.720;2023-09-08T11:32:37;4.90;;;2.60;;
75016;SDS011;63577;39.766;2.720;2023-09-08T11:35:06;5.20;;;2.80;;
75016;SDS011;63577;39.766;2.720;2023-09-08T11:37:34;5.50;;;2.70;;
75016;SDS011;63577;39.766;2.720;2023-09-08T11:40:00;5.30;;;3.00;;
75016;SDS011;63577;39.766;2.720;2023-09-08T11:42:25;5.50;;;2.50;;
75016;SDS011;63577;39.766;2.720;2023-09-08T11:44:50;4.60;;;2.50;;
75016;SDS011;63577;39.766;2.720;2023-09-08T11:47:16;6.40;;;3.00;;
75016;SDS011;63577;39.766;2.720;2023-09-08T11:49:42;5.30;;;2.70;;
75016;SDS011;63577;39.766;2.720;2023-09-08T11:52:09;5.40;;;2.70;;
75016;SDS011;63577;39.766;2.720;2023-09-08T11:54:35;4.30;;;2.80;;
75016;SDS011;63577;39.766;2.720;2023-09-08T11:57:02;5.20;;;2.80;;
75016;SDS011;63577;39.766;2.720;2023-09-08T11:59:28;4.80;;;2.70;;
75016;SDS011;63577;39.766;2.720;2023-09-08T12:01:55;6.10;;;3.10;;
75016;SDS011;63577;39.766;2.720;2023-09-08T12:04:21;5.50;;;3.10;;
75016;SDS011;63577;39.766;2.720;2023-09-08T12:06:50;5.60;;;2.70;;
75016;SDS011;63577;39.766;2.720;2023-09-08T12:09:16;5.80;;;3.00;;
75016;SDS011;63577;39.766;2.720;2023-09-08T12:11:41;5.70;;;2.60;;
75016;SDS011;63577;39.766;2.720;2023-09-08T12:14:11;5.30;;;2.40;;
75016;SDS011;63577;39.766;2.720;2023-09-08T12:16:36;4.60;;;2.20;;
75016;SDS011;63577;39.766;2.720;2023-09-08T12:19:02;5.20;;;2.70;;
75016;SDS011;63577;39.766;2.720;2023-09-08T12:21:27;6.10;;;2.80;;
75016;SDS011;63577;39.766;2.720;2023-09-08T12:23:53;4.70;;;2.30;;
75016;SDS011;63577;39.766;2.720;2023-09-08T12:26:19;5.60;;;3.00;;
75016;SDS011;63577;39.766;2.720;2023-09-08T12:28:45;5.80;;;2.90;;
75016;SDS011;63577;39.766;2.720;2023-09-08T12:31:12;5.00;;;2.90;;
75016;SDS011;63577;39.766;2.720;2023-09-08T12:33:37;5.90;;;2.90;;
75016;SDS011;63577;39.766;2.720;2023-09-08T12:36:13;7.00;;;3.10;;
75016;SDS011;63577;39.766;2.720;2023-09-08T12:41:03;5.30;;;2.40;;
75016;SDS011;63577;39.766;2.720;2023-09-08T12:43:29;6.00;;;2.70;;
75016;SDS011;63577;39.766;2.720;2023-09-08T12:45:55;4.70;;;2.50;;
75016;SDS011;63577;39.766;2.720;2023-09-08T12:48:21;4.50;;;3.10;;
75016;SDS011;63577;39.766;2.720;2023-09-08T12:50:47;4.60;;;3.00;;
75016;SDS011;63577;39.766;2.720;2023-09-08T12:53:15;5.80;;;3.40;;
75016;SDS011;63577;39.766;2.720;2023-09-08T12:58:10;4.60;;;3.00;;
75016;SDS011;63577;39.766;2.720;2023-09-08T13:00:35;5.60;;;2.90;;
75016;SDS011;63577;39.766;2.720;2023-09-08T13:03:01;5.50;;;2.70;;
75016;SDS011;63577;39.766;2.720;2023-09-08T13:05:27;5.70;;;2.50;;
75016;SDS011;63577;39.766;2.720;2023-09-08T13:07:53;4.40;;;2.40;;
75016;SDS011;63577;39.766;2.720;2023-09-08T13:10:18;5.00;;;2.60;;
75016;SDS011;63577;39.766;2.720;2023-09-08T13:12:45;5.50;;;2.90;;
75016;SDS011;63577;39.766;2.720;2023-09-08T13:15:10;5.80;;;2.80;;
75016;SDS011;63577;39.766;2.720;2023-09-08T13:17:36;5.00;;;2.80;;
75016;SDS011;63577;39.766;2.720;2023-09-08T13:20:02;6.30;;;3.20;;
75016;SDS011;63577;39.766;2.720;2023-09-08T13:22:28;6.30;;;3.00;;
75016;SDS011;63577;39.766;2.720;2023-09-08T13:24:53;5.50;;;3.00;;
75016;SDS011;63577;39.766;2.720;2023-09-08T13:27:20;4.90;;;3.00;;
75016;SDS011;63577;39.766;2.720;2023-09-08T13:29:45;5.60;;;3.20;;
75016;SDS011;63577;39.766;2.720;2023-09-08T13:32:10;5.20;;;2.80;;
75016;SDS011;63577;39.766;2.720;2023-09-08T13:34:36;8.90;;;3.10;;
75016;SDS011;63577;39.766;2.720;2023-09-08T13:37:03;5.40;;;3.00;;
75016;SDS011;63577;39.766;2.720;2023-09-08T13:39:28;5.30;;;3.20;;
75016;SDS011;63577;39.766;2.720;2023-09-08T13:41:54;6.00;;;2.70;;
75016;SDS011;63577;39.766;2.720;2023-09-08T13:44:21;5.90;;;2.70;;
75016;SDS011;63577;39.766;2.720;2023-09-08T13:46:47;5.20;;;2.70;;
75016;SDS011;63577;39.766;2.720;2023-09-08T13:49:13;4.70;;;2.60;;
75016;SDS011;63577;39.766;2.720;2023-09-08T13:51:38;6.70;;;2.60;;
75016;SDS011;63577;39.766;2.720;2023-09-08T13:54:03;5.80;;;3.10;;
75016;SDS011;63577;39.766;2.720;2023-09-08T13:56:29;5.90;;;3.00;;
75016;SDS011;63577;39.766;2.720;2023-09-08T13:58:54;5.10;;;3.00;;
75016;SDS011;63577;39.766;2.720;2023-09-08T14:01:20;5.50;;;3.00;;
75016;SDS011;63577;39.766;2.720;2023-09-08T14:03:45;5.60;;;2.70;;
75016;SDS011;63577;39.766;2.720;2023-09-08T14:06:10;6.00;;;2.80;;
75016;SDS011;63577;39.766;2.720;2023-09-08T14:08:36;5.00;;;2.60;;
75016;SDS011;63577;39.766;2.720;2023-09-08T14:11:01;4.80;;;2.40;;
75016;SDS011;63577;39.766;2.720;2023-09-08T14:13:27;5.60;;;3.00;;
75016;SDS011;63577;39.766;2.720;2023-09-08T14:15:52;4.70;;;2.60;;
75016;SDS011;63577;39.766;2.720;2023-09-08T14:18:18;6.60;;;2.70;;
75016;SDS011;63577;39.766;2.720;2023-09-08T14:20:43;5.20;;;2.80;;
75016;SDS011;63577;39.766;2.720;2023-09-08T14:23:09;5.30;;;3.10;;
75016;SDS011;63577;39.766;2.720;2023-09-08T14:25:34;6.00;;;2.70;;
75016;SDS011;63577;39.766;2.720;2023-09-08T14:28:00;5.50;;;2.70;;
75016;SDS011;63577;39.766;2.720;2023-09-08T14:30:28;5.10;;;2.80;;
75016;SDS011;63577;39.766;2.720;2023-09-08T14:32:53;6.50;;;3.20;;
75016;SDS011;63577;39.766;2.720;2023-09-08T14:35:19;5.30;;;2.90;;
75016;SDS011;63577;39.766;2.720;2023-09-08T14:37:46;9.30;;;2.80;;
75016;SDS011;63577;39.766;2.720;2023-09-08T14:40:12;5.30;;;2.80;;
75016;SDS011;63577;39.766;2.720;2023-09-08T14:42:37;4.80;;;2.80;;
75016;SDS011;63577;39.766;2.720;2023-09-08T14:45:03;5.00;;;2.50;;
75016;SDS011;63577;39.766;2.720;2023-09-08T14:47:28;6.30;;;2.60;;
75016;SDS011;63577;39.766;2.720;2023-09-08T14:49:54;5.30;;;2.70;;
75016;SDS011;63577;39.766;2.720;2023-09-08T14:52:19;4.80;;;2.60;;
75016;SDS011;63577;39.766;2.720;2023-09-08T14:54:45;5.40;;;2.70;;